Terminal Aerodrome Forecast
Issued by NWS Louisville, KY

Home | Current Version | Previous Version | Text Only | Print | Product List | Glossary On
Versions: 1 2 3 4 5 6 7 8 9 10 11 12 13 14
000
FTUS43 KLMK 260524
TAFBWG
TAF
KBWG 260524Z 2606/2706 15005KT P6SM FEW250
     FM261400 19012G19KT P6SM FEW050 SCT250
     FM270200 17015KT P6SM BKN250 WS016/17049KT=

USA.gov is the U.S. government's official web portal to all federal, state and local government web resources and services.